sensor_id;sensor_type;location;lat;lon;timestamp;temperature;humidity
935;DHT22;454;53.254;10.400;2022-07-15T04:01:40;13.90;99.90
935;DHT22;454;53.254;10.400;2022-07-15T04:04:07;14.00;99.90
935;DHT22;454;53.254;10.400;2022-07-15T04:06:34;14.00;99.90
935;DHT22;454;53.254;10.400;2022-07-15T04:09:02;14.00;99.90
935;DHT22;454;53.254;10.400;2022-07-15T04:11:29;14.00;99.90
935;DHT22;454;53.254;10.400;2022-07-15T04:13:55;14.00;99.90
935;DHT22;454;53.254;10.400;2022-07-15T04:16:22;14.00;99.90
935;DHT22;454;53.254;10.400;2022-07-15T04:18:50;14.00;99.90
935;DHT22;454;53.254;10.400;2022-07-15T04:21:17;14.00;99.90
935;DHT22;454;53.254;10.400;2022-07-15T04:23:44;14.10;99.90
935;DHT22;454;53.254;10.400;2022-07-15T04:26:11;14.10;99.90
935;DHT22;454;53.254;10.400;2022-07-15T04:28:38;14.20;99.90
935;DHT22;454;53.254;10.400;2022-07-15T04:31:04;14.10;99.90
935;DHT22;454;53.254;10.400;2022-07-15T04:33:31;14.20;99.90
935;DHT22;454;53.254;10.400;2022-07-15T04:35:59;14.20;99.90
935;DHT22;454;53.254;10.400;2022-07-15T04:38:26;14.20;99.90
935;DHT22;454;53.254;10.400;2022-07-15T04:40:53;14.20;99.90
935;DHT22;454;53.254;10.400;2022-07-15T04:43:19;14.20;99.90
935;DHT22;454;53.254;10.400;2022-07-15T04:45:46;14.20;99.90
935;DHT22;454;53.254;10.400;2022-07-15T04:48:14;14.30;99.90
935;DHT22;454;53.254;10.400;2022-07-15T04:50:59;14.30;99.90
935;DHT22;454;53.254;10.400;2022-07-15T04:53:26;14.40;99.90
935;DHT22;454;53.254;10.400;2022-07-15T04:55:53;14.40;99.90
935;DHT22;454;53.254;10.400;2022-07-15T04:58:20;14.50;99.90
935;DHT22;454;53.254;10.400;2022-07-15T05:00:47;14.60;99.90
935;DHT22;454;53.254;10.400;2022-07-15T05:03:14;14.70;99.90
935;DHT22;454;53.254;10.400;2022-07-15T05:05:40;14.70;99.90
935;DHT22;454;53.254;10.400;2022-07-15T05:08:09;14.70;99.90
935;DHT22;454;53.254;10.400;2022-07-15T05:10:35;14.70;99.90
935;DHT22;454;53.254;10.400;2022-07-15T05:13:02;14.70;99.90
935;DHT22;454;53.254;10.400;2022-07-15T05:15:29;14.70;99.90
935;DHT22;454;53.254;10.400;2022-07-15T05:17:56;14.70;99.90
935;DHT22;454;53.254;10.400;2022-07-15T05:20:23;14.60;99.90
935;DHT22;454;53.254;10.400;2022-07-15T05:22:49;14.60;99.90
935;DHT22;454;53.254;10.400;2022-07-15T05:25:18;14.50;99.90
935;DHT22;454;53.254;10.400;2022-07-15T05:27:44;14.50;99.90
935;DHT22;454;53.254;10.400;2022-07-15T05:30:11;14.40;99.90
935;DHT22;454;53.254;10.400;2022-07-15T05:32:41;14.30;99.90
935;DHT22;454;53.254;10.400;2022-07-15T05:35:08;14.30;99.90
935;DHT22;454;53.254;10.400;2022-07-15T05:37:37;14.40;99.90
935;DHT22;454;53.254;10.400;2022-07-15T05:40:06;14.40;99.90
935;DHT22;454;53.254;10.400;2022-07-15T05:42:34;14.50;99.90
935;DHT22;454;53.254;10.400;2022-07-15T05:45:01;14.60;99.90
935;DHT22;454;53.254;10.400;2022-07-15T05:47:28;14.60;99.90
935;DHT22;454;53.254;10.400;2022-07-15T05:49:55;14.70;99.90
935;DHT22;454;53.254;10.400;2022-07-15T05:52:22;14.80;99.90
935;DHT22;454;53.254;10.400;2022-07-15T05:54:49;14.90;99.90
935;DHT22;454;53.254;10.400;2022-07-15T05:57:16;15.00;99.90
935;DHT22;454;53.254;10.400;2022-07-15T05:59:44;15.00;99.90
935;DHT22;454;53.254;10.400;2022-07-15T06:02:10;15.00;99.90
935;DHT22;454;53.254;10.400;2022-07-15T06:04:39;15.00;99.90
935;DHT22;454;53.254;10.400;2022-07-15T06:07:06;15.10;99.90
935;DHT22;454;53.254;10.400;2022-07-15T06:09:33;15.10;99.90
935;DHT22;454;53.254;10.400;2022-07-15T06:11:59;15.30;99.90
935;DHT22;454;53.254;10.400;2022-07-15T06:14:26;15.40;99.90
935;DHT22;454;53.254;10.400;2022-07-15T06:16:54;15.50;99.90
935;DHT22;454;53.254;10.400;2022-07-15T06:19:21;15.70;99.90
935;DHT22;454;53.254;10.400;2022-07-15T06:21:48;15.80;99.90
935;DHT22;454;53.254;10.400;2022-07-15T06:24:14;15.80;99.90
935;DHT22;454;53.254;10.400;2022-07-15T06:26:41;15.80;99.90
935;DHT22;454;53.254;10.400;2022-07-15T06:29:08;15.80;99.90
935;DHT22;454;53.254;10.400;2022-07-15T06:31:35;16.00;99.90
935;DHT22;454;53.254;10.400;2022-07-15T06:34:03;16.00;99.90
935;DHT22;454;53.254;10.400;2022-07-15T06:36:30;16.10;99.90
935;DHT22;454;53.254;10.400;2022-07-15T06:38:56;16.10;99.90
935;DHT22;454;53.254;10.400;2022-07-15T06:41:23;16.10;99.90
935;DHT22;454;53.254;10.400;2022-07-15T06:43:50;16.20;99.90
935;DHT22;454;53.254;10.400;2022-07-15T06:46:17;16.20;99.90
935;DHT22;454;53.254;10.400;2022-07-15T06:48:43;16.10;99.90
935;DHT22;454;53.254;10.400;2022-07-15T06:51:11;16.10;99.90
935;DHT22;454;53.254;10.400;2022-07-15T06:53:38;16.20;99.90
935;DHT22;454;53.254;10.400;2022-07-15T06:56:05;16.30;99.90
935;DHT22;454;53.254;10.400;2022-07-15T06:58:32;16.30;99.90
935;DHT22;454;53.254;10.400;2022-07-15T07:00:59;16.40;99.90
935;DHT22;454;53.254;10.400;2022-07-15T07:03:25;16.40;99.90
935;DHT22;454;53.254;10.400;2022-07-15T07:05:52;16.60;99.90
935;DHT22;454;53.254;10.400;2022-07-15T07:08:20;16.80;99.90
935;DHT22;454;53.254;10.400;2022-07-15T07:10:47;17.00;99.90
935;DHT22;454;53.254;10.400;2022-07-15T07:13:14;17.10;99.90
935;DHT22;454;53.254;10.400;2022-07-15T07:15:41;17.20;99.90
935;DHT22;454;53.254;10.400;2022-07-15T07:18:07;17.30;99.90
935;DHT22;454;53.254;10.400;2022-07-15T07:20:36;17.80;99.90
935;DHT22;454;53.254;10.400;2022-07-15T07:23:02;18.90;99.90
935;DHT22;454;53.254;10.400;2022-07-15T07:25:31;19.90;99.90
935;DHT22;454;53.254;10.400;2022-07-15T07:27:57;20.70;99.90
935;DHT22;454;53.254;10.400;2022-07-15T07:30:28;21.60;99.90
935;DHT22;454;53.254;10.400;2022-07-15T07:32:55;21.70;99.90
935;DHT22;454;53.254;10.400;2022-07-15T07:35:22;22.20;99.90
935;DHT22;454;53.254;10.400;2022-07-15T07:37:50;22.70;99.90
935;DHT22;454;53.254;10.400;2022-07-15T07:40:17;23.00;99.90
935;DHT22;454;53.254;10.400;2022-07-15T07:42:45;22.50;99.90
935;DHT22;454;53.254;10.400;2022-07-15T07:45:11;21.80;99.90
935;DHT22;454;53.254;10.400;2022-07-15T07:47:38;21.10;99.90
935;DHT22;454;53.254;10.400;2022-07-15T07:50:08;20.80;99.90
935;DHT22;454;53.254;10.400;2022-07-15T07:52:35;20.60;99.90
935;DHT22;454;53.254;10.400;2022-07-15T07:55:02;20.90;99.90
935;DHT22;454;53.254;10.400;2022-07-15T07:57:29;21.50;99.90
935;DHT22;454;53.254;10.400;2022-07-15T07:59:57;21.20;99.90
935;DHT22;454;53.254;10.400;2022-07-15T08:02:23;20.80;99.90
935;DHT22;454;53.254;10.400;2022-07-15T08:04:50;20.20;99.90
935;DHT22;454;53.254;10.400;2022-07-15T08:07:17;19.50;99.90
935;DHT22;454;53.254;10.400;2022-07-15T08:09:44;19.20;99.90
935;DHT22;454;53.254;10.400;2022-07-15T08:12:11;18.90;99.90
935;DHT22;454;53.254;10.400;2022-07-15T08:14:37;18.50;99.90
935;DHT22;454;53.254;10.400;2022-07-15T08:17:05;18.30;99.90
935;DHT22;454;53.254;10.400;2022-07-15T08:19:32;18.10;99.90
935;DHT22;454;53.254;10.400;2022-07-15T08:21:59;18.10;99.90
935;DHT22;454;53.254;10.400;2022-07-15T08:24:26;18.00;99.90
935;DHT22;454;53.254;10.400;2022-07-15T08:26:53;18.10;99.90
935;DHT22;454;53.254;10.400;2022-07-15T08:29:20;18.00;99.90
935;DHT22;454;53.254;10.400;2022-07-15T08:31:46;18.10;99.90
935;DHT22;454;53.254;10.400;2022-07-15T08:34:14;18.00;99.90
935;DHT22;454;53.254;10.400;2022-07-15T08:36:41;18.10;99.90
935;DHT22;454;53.254;10.400;2022-07-15T08:39:08;18.00;99.90
935;DHT22;454;53.254;10.400;2022-07-15T08:41:35;17.90;99.90
935;DHT22;454;53.254;10.400;2022-07-15T08:44:02;17.80;99.90
935;DHT22;454;53.254;10.400;2022-07-15T08:46:30;17.70;99.90
935;DHT22;454;53.254;10.400;2022-07-15T08:49:02;17.50;99.90
935;DHT22;454;53.254;10.400;2022-07-15T08:51:35;17.40;99.90
935;DHT22;454;53.254;10.400;2022-07-15T08:54:02;17.40;99.90
935;DHT22;454;53.254;10.400;2022-07-15T08:56:30;17.40;99.90
935;DHT22;454;53.254;10.400;2022-07-15T08:58:57;17.50;99.90
935;DHT22;454;53.254;10.400;2022-07-15T09:01:24;17.60;99.90
935;DHT22;454;53.254;10.400;2022-07-15T09:03:51;17.50;99.90
935;DHT22;454;53.254;10.400;2022-07-15T09:06:32;17.60;99.90
935;DHT22;454;53.254;10.400;2022-07-15T09:09:22;17.60;99.90
935;DHT22;454;53.254;10.400;2022-07-15T09:11:53;17.80;99.90
935;DHT22;454;53.254;10.400;2022-07-15T09:14:21;17.90;99.90
935;DHT22;454;53.254;10.400;2022-07-15T09:16:48;18.20;99.90
935;DHT22;454;53.254;10.400;2022-07-15T09:19:15;18.40;99.90
935;DHT22;454;53.254;10.400;2022-07-15T09:21:43;18.50;99.90
935;DHT22;454;53.254;10.400;2022-07-15T09:24:17;18.90;99.90
935;DHT22;454;53.254;10.400;2022-07-15T09:26:44;19.20;99.90
935;DHT22;454;53.254;10.400;2022-07-15T09:29:14;19.10;99.90
935;DHT22;454;53.254;10.400;2022-07-15T09:31:59;19.20;99.90
935;DHT22;454;53.254;10.400;2022-07-15T09:34:59;19.30;99.90
935;DHT22;454;53.254;10.400;2022-07-15T09:37:27;19.30;99.90
935;DHT22;454;53.254;10.400;2022-07-15T09:39:55;19.40;99.90
935;DHT22;454;53.254;10.400;2022-07-15T09:42:23;19.40;99.90
935;DHT22;454;53.254;10.400;2022-07-15T09:44:49;19.10;99.90
935;DHT22;454;53.254;10.400;2022-07-15T09:47:18;18.90;99.90
935;DHT22;454;53.254;10.400;2022-07-15T09:49:46;18.70;99.90
935;DHT22;454;53.254;10.400;2022-07-15T09:52:13;18.60;99.90
935;DHT22;454;53.254;10.400;2022-07-15T09:54:44;18.60;99.90
935;DHT22;454;53.254;10.400;2022-07-15T09:57:12;18.80;99.90
935;DHT22;454;53.254;10.400;2022-07-15T09:59:40;18.90;99.90
935;DHT22;454;53.254;10.400;2022-07-15T10:02:07;19.10;99.90
935;DHT22;454;53.254;10.400;2022-07-15T10:04:35;19.30;99.90
935;DHT22;454;53.254;10.400;2022-07-15T10:07:02;19.50;99.90
935;DHT22;454;53.254;10.400;2022-07-15T10:09:31;19.60;99.90
935;DHT22;454;53.254;10.400;2022-07-15T10:12:03;19.70;99.90
935;DHT22;454;53.254;10.400;2022-07-15T10:17:47;19.80;99.90
935;DHT22;454;53.254;10.400;2022-07-15T10:20:43;19.70;99.90
935;DHT22;454;53.254;10.400;2022-07-15T10:23:27;19.70;99.90
935;DHT22;454;53.254;10.400;2022-07-15T10:26:10;19.60;99.90
935;DHT22;454;53.254;10.400;2022-07-15T10:28:49;19.30;99.90
935;DHT22;454;53.254;10.400;2022-07-15T10:31:19;19.10;99.90
935;DHT22;454;53.254;10.400;2022-07-15T10:34:18;18.90;99.90
935;DHT22;454;53.254;10.400;2022-07-15T10:36:58;18.80;99.90
935;DHT22;454;53.254;10.400;2022-07-15T10:39:26;18.80;99.90
935;DHT22;454;53.254;10.400;2022-07-15T10:41:55;18.80;99.90
935;DHT22;454;53.254;10.400;2022-07-15T10:44:25;18.90;99.90
935;DHT22;454;53.254;10.400;2022-07-15T10:47:17;19.20;99.90
935;DHT22;454;53.254;10.400;2022-07-15T10:49:46;19.40;99.90
935;DHT22;454;53.254;10.400;2022-07-15T10:52:15;19.60;99.90
935;DHT22;454;53.254;10.400;2022-07-15T10:54:47;19.70;99.90
935;DHT22;454;53.254;10.400;2022-07-15T10:57:15;19.90;99.90
935;DHT22;454;53.254;10.400;2022-07-15T10:59:52;20.00;99.90
935;DHT22;454;53.254;10.400;2022-07-15T11:02:21;20.00;99.90
935;DHT22;454;53.254;10.400;2022-07-15T11:04:49;20.00;99.90
935;DHT22;454;53.254;10.400;2022-07-15T11:07:24;19.90;99.90
935;DHT22;454;53.254;10.400;2022-07-15T11:09:52;20.00;99.90
935;DHT22;454;53.254;10.400;2022-07-15T11:12:21;20.10;99.90
935;DHT22;454;53.254;10.400;2022-07-15T11:14:52;20.50;99.90
935;DHT22;454;53.254;10.400;2022-07-15T11:17:22;20.70;99.90
935;DHT22;454;53.254;10.400;2022-07-15T11:19:52;20.80;99.90
935;DHT22;454;53.254;10.400;2022-07-15T11:22:20;20.80;99.90
935;DHT22;454;53.254;10.400;2022-07-15T11:24:47;20.70;99.90
935;DHT22;454;53.254;10.400;2022-07-15T11:27:14;20.50;99.90
935;DHT22;454;53.254;10.400;2022-07-15T11:29:43;20.70;99.90
935;DHT22;454;53.254;10.400;2022-07-15T11:32:13;20.90;99.90
935;DHT22;454;53.254;10.400;2022-07-15T11:34:41;21.20;99.90
935;DHT22;454;53.254;10.400;2022-07-15T11:37:08;21.30;99.90
935;DHT22;454;53.254;10.400;2022-07-15T11:39:37;21.30;99.90
935;DHT22;454;53.254;10.400;2022-07-15T11:42:04;21.20;99.90
935;DHT22;454;53.254;10.400;2022-07-15T11:44:49;21.20;99.90
935;DHT22;454;53.254;10.400;2022-07-15T11:47:17;21.30;99.90
935;DHT22;454;53.254;10.400;2022-07-15T11:49:44;21.40;99.80
935;DHT22;454;53.254;10.400;2022-07-15T11:52:22;21.30;99.60
935;DHT22;454;53.254;10.400;2022-07-15T11:54:49;21.00;99.90
935;DHT22;454;53.254;10.400;2022-07-15T11:57:16;20.90;99.90
935;DHT22;454;53.254;10.400;2022-07-15T11:59:54;20.90;99.90
935;DHT22;454;53.254;10.400;2022-07-15T12:02:25;21.10;99.90
935;DHT22;454;53.254;10.400;2022-07-15T12:05:01;21.40;99.90
935;DHT22;454;53.254;10.400;2022-07-15T12:07:39;21.20;99.90
935;DHT22;454;53.254;10.400;2022-07-15T12:10:07;21.00;99.90
935;DHT22;454;53.254;10.400;2022-07-15T12:12:34;20.90;99.90
935;DHT22;454;53.254;10.400;2022-07-15T12:15:01;20.80;99.90
935;DHT22;454;53.254;10.400;2022-07-15T12:17:29;20.80;99.90
935;DHT22;454;53.254;10.400;2022-07-15T12:19:56;20.70;99.90
935;DHT22;454;53.254;10.400;2022-07-15T12:22:24;20.80;99.90
935;DHT22;454;53.254;10.400;2022-07-15T12:24:51;21.00;99.90
935;DHT22;454;53.254;10.400;2022-07-15T12:27:18;21.10;99.90
935;DHT22;454;53.254;10.400;2022-07-15T12:29:45;21.20;99.90
935;DHT22;454;53.254;10.400;2022-07-15T12:32:14;21.30;99.90
935;DHT22;454;53.254;10.400;2022-07-15T12:34:50;21.50;99.90
935;DHT22;454;53.254;10.400;2022-07-15T12:37:21;21.70;99.90
935;DHT22;454;53.254;10.400;2022-07-15T12:39:59;21.70;99.90
935;DHT22;454;53.254;10.400;2022-07-15T12:42:26;21.70;99.90
935;DHT22;454;53.254;10.400;2022-07-15T12:45:13;21.80;99.90
935;DHT22;454;53.254;10.400;2022-07-15T12:47:58;21.80;99.90
935;DHT22;454;53.254;10.400;2022-07-15T12:50:27;21.80;99.90
935;DHT22;454;53.254;10.400;2022-07-15T12:52:55;21.90;99.90
935;DHT22;454;53.254;10.400;2022-07-15T12:55:24;21.80;99.90
935;DHT22;454;53.254;10.400;2022-07-15T12:58:02;21.80;99.90
935;DHT22;454;53.254;10.400;2022-07-15T13:00:29;21.70;99.90
935;DHT22;454;53.254;10.400;2022-07-15T13:02:59;21.50;99.90
935;DHT22;454;53.254;10.400;2022-07-15T13:05:29;21.50;99.90
935;DHT22;454;53.254;10.400;2022-07-15T13:07:56;21.30;99.90
935;DHT22;454;53.254;10.400;2022-07-15T13:10:24;21.30;99.90
935;DHT22;454;53.254;10.400;2022-07-15T13:12:51;21.20;99.90
935;DHT22;454;53.254;10.400;2022-07-15T13:15:17;21.20;99.90
935;DHT22;454;53.254;10.400;2022-07-15T13:17:44;21.30;99.90
935;DHT22;454;53.254;10.400;2022-07-15T13:20:11;21.20;99.90
935;DHT22;454;53.254;10.400;2022-07-15T13:22:40;21.10;99.90
935;DHT22;454;53.254;10.400;2022-07-15T13:25:08;21.30;99.90
935;DHT22;454;53.254;10.400;2022-07-15T13:27:35;21.60;99.90
935;DHT22;454;53.254;10.400;2022-07-15T13:30:02;21.70;99.90
935;DHT22;454;53.254;10.400;2022-07-15T13:32:30;21.60;99.90
935;DHT22;454;53.254;10.400;2022-07-15T13:34:56;21.70;99.90
935;DHT22;454;53.254;10.400;2022-07-15T13:37:23;21.80;99.90
935;DHT22;454;53.254;10.400;2022-07-15T13:39:51;21.80;99.90
935;DHT22;454;53.254;10.400;2022-07-15T13:42:18;21.80;99.90
935;DHT22;454;53.254;10.400;2022-07-15T13:44:45;21.80;99.90
935;DHT22;454;53.254;10.400;2022-07-15T13:47:11;21.70;99.90
935;DHT22;454;53.254;10.400;2022-07-15T13:49:38;21.40;99.90
935;DHT22;454;53.254;10.400;2022-07-15T13:52:22;21.10;99.90
935;DHT22;454;53.254;10.400;2022-07-15T13:54:50;20.90;99.90
935;DHT22;454;53.254;10.400;2022-07-15T13:57:17;20.70;99.90
935;DHT22;454;53.254;10.400;2022-07-15T13:59:43;20.30;99.90
935;DHT22;454;53.254;10.400;2022-07-15T14:02:10;20.10;99.90
935;DHT22;454;53.254;10.400;2022-07-15T14:04:37;20.10;99.90
935;DHT22;454;53.254;10.400;2022-07-15T14:07:04;20.00;99.90
935;DHT22;454;53.254;10.400;2022-07-15T14:09:30;20.10;99.90
935;DHT22;454;53.254;10.400;2022-07-15T14:11:58;20.00;99.90
935;DHT22;454;53.254;10.400;2022-07-15T14:14:25;20.00;99.90
935;DHT22;454;53.254;10.400;2022-07-15T14:16:52;20.00;99.90
935;DHT22;454;53.254;10.400;2022-07-15T14:19:19;19.70;99.90
935;DHT22;454;53.254;10.400;2022-07-15T14:21:46;19.50;99.90
935;DHT22;454;53.254;10.400;2022-07-15T14:24:13;19.30;99.90
935;DHT22;454;53.254;10.400;2022-07-15T14:26:39;19.40;99.90
935;DHT22;454;53.254;10.400;2022-07-15T14:29:07;19.50;99.90
935;DHT22;454;53.254;10.400;2022-07-15T14:31:35;19.20;99.90
935;DHT22;454;53.254;10.400;2022-07-15T14:34:01;19.10;99.90
935;DHT22;454;53.254;10.400;2022-07-15T14:36:28;19.20;99.90
935;DHT22;454;53.254;10.400;2022-07-15T14:38:55;19.40;99.90
935;DHT22;454;53.254;10.400;2022-07-15T14:41:23;19.70;99.90
935;DHT22;454;53.254;10.400;2022-07-15T14:43:49;20.00;99.90
935;DHT22;454;53.254;10.400;2022-07-15T14:46:17;20.20;99.90
935;DHT22;454;53.254;10.400;2022-07-15T14:48:44;20.50;99.90
935;DHT22;454;53.254;10.400;2022-07-15T14:51:11;20.70;99.90
935;DHT22;454;53.254;10.400;2022-07-15T14:53:38;20.70;99.90
935;DHT22;454;53.254;10.400;2022-07-15T14:56:05;20.80;99.90
935;DHT22;454;53.254;10.400;2022-07-15T14:58:32;20.90;99.90
935;DHT22;454;53.254;10.400;2022-07-15T15:00:58;21.00;99.90
935;DHT22;454;53.254;10.400;2022-07-15T15:03:27;21.10;99.90
935;DHT22;454;53.254;10.400;2022-07-15T15:05:53;21.10;99.90
935;DHT22;454;53.254;10.400;2022-07-15T15:08:21;21.00;99.90
935;DHT22;454;53.254;10.400;2022-07-15T15:10:48;21.10;99.90
935;DHT22;454;53.254;10.400;2022-07-15T15:13:14;21.20;99.90
935;DHT22;454;53.254;10.400;2022-07-15T15:15:42;21.10;99.90
935;DHT22;454;53.254;10.400;2022-07-15T15:18:09;21.00;99.90
935;DHT22;454;53.254;10.400;2022-07-15T15:20:37;20.90;99.90
935;DHT22;454;53.254;10.400;2022-07-15T15:23:04;20.70;99.90
935;DHT22;454;53.254;10.400;2022-07-15T15:25:30;20.50;99.90
935;DHT22;454;53.254;10.400;2022-07-15T15:28:15;20.50;99.90
935;DHT22;454;53.254;10.400;2022-07-15T15:30:41;20.40;99.90
935;DHT22;454;53.254;10.400;2022-07-15T15:33:08;20.50;99.90
935;DHT22;454;53.254;10.400;2022-07-15T15:35:36;20.70;99.90
935;DHT22;454;53.254;10.400;2022-07-15T15:38:03;21.00;99.90
935;DHT22;454;53.254;10.400;2022-07-15T15:40:29;21.10;99.90
935;DHT22;454;53.254;10.400;2022-07-15T15:42:56;21.40;99.90
935;DHT22;454;53.254;10.400;2022-07-15T15:45:23;21.40;99.90
935;DHT22;454;53.254;10.400;2022-07-15T15:47:49;21.40;99.90
935;DHT22;454;53.254;10.400;2022-07-15T15:50:16;21.20;99.90
935;DHT22;454;53.254;10.400;2022-07-15T15:52:45;21.00;99.90
935;DHT22;454;53.254;10.400;2022-07-15T15:55:12;20.90;99.90
935;DHT22;454;53.254;10.400;2022-07-15T15:57:39;20.90;99.90
935;DHT22;454;53.254;10.400;2022-07-15T16:00:07;20.90;99.90
935;DHT22;454;53.254;10.400;2022-07-15T16:02:34;20.60;99.90
935;DHT22;454;53.254;10.400;2022-07-15T16:05:01;20.70;99.90
935;DHT22;454;53.254;10.400;2022-07-15T16:07:29;20.90;99.90
935;DHT22;454;53.254;10.400;2022-07-15T16:09:57;20.80;99.90
935;DHT22;454;53.254;10.400;2022-07-15T16:12:23;20.60;99.90
935;DHT22;454;53.254;10.400;2022-07-15T16:14:50;20.50;99.90
935;DHT22;454;53.254;10.400;2022-07-15T16:17:17;20.40;99.90
935;DHT22;454;53.254;10.400;2022-07-15T16:19:44;20.50;99.90
935;DHT22;454;53.254;10.400;2022-07-15T16:22:10;20.70;99.90
935;DHT22;454;53.254;10.400;2022-07-15T16:24:54;20.70;99.90
935;DHT22;454;53.254;10.400;2022-07-15T16:27:23;20.50;99.90
935;DHT22;454;53.254;10.400;2022-07-15T16:29:49;20.30;99.90
935;DHT22;454;53.254;10.400;2022-07-15T16:32:16;20.30;99.90
935;DHT22;454;53.254;10.400;2022-07-15T16:34:43;20.40;99.90
935;DHT22;454;53.254;10.400;2022-07-15T16:37:10;20.60;99.90
935;DHT22;454;53.254;10.400;2022-07-15T16:39:36;20.60;99.90
935;DHT22;454;53.254;10.400;2022-07-15T16:42:03;20.50;99.90
935;DHT22;454;53.254;10.400;2022-07-15T16:44:31;20.30;99.90
935;DHT22;454;53.254;10.400;2022-07-15T16:46:58;20.20;99.90
935;DHT22;454;53.254;10.400;2022-07-15T16:49:25;20.00;99.90
935;DHT22;454;53.254;10.400;2022-07-15T16:51:51;20.10;99.90
935;DHT22;454;53.254;10.400;2022-07-15T16:54:18;20.20;99.90
935;DHT22;454;53.254;10.400;2022-07-15T16:56:45;20.20;99.90
935;DHT22;454;53.254;10.400;2022-07-15T16:59:12;20.10;99.90
935;DHT22;454;53.254;10.400;2022-07-15T17:01:40;20.00;99.90
935;DHT22;454;53.254;10.400;2022-07-15T17:04:06;20.10;99.90
935;DHT22;454;53.254;10.400;2022-07-15T17:06:33;20.10;99.90
935;DHT22;454;53.254;10.400;2022-07-15T17:09:00;20.10;99.90
935;DHT22;454;53.254;10.400;2022-07-15T17:11:26;20.10;99.90
935;DHT22;454;53.254;10.400;2022-07-15T17:13:53;20.00;99.90
935;DHT22;454;53.254;10.400;2022-07-15T17:16:20;19.90;99.90
935;DHT22;454;53.254;10.400;2022-07-15T17:18:48;19.90;99.90
935;DHT22;454;53.254;10.400;2022-07-15T17:21:14;19.80;99.90
935;DHT22;454;53.254;10.400;2022-07-15T17:23:42;19.80;99.90
935;DHT22;454;53.254;10.400;2022-07-15T17:26:08;19.70;99.90
935;DHT22;454;53.254;10.400;2022-07-15T17:28:35;19.70;99.90
935;DHT22;454;53.254;10.400;2022-07-15T17:31:02;19.70;99.90
935;DHT22;454;53.254;10.400;2022-07-15T17:33:29;19.60;99.90
935;DHT22;454;53.254;10.400;2022-07-15T17:35:57;19.70;99.90
935;DHT22;454;53.254;10.400;2022-07-15T17:38:26;19.60;99.90
935;DHT22;454;53.254;10.400;2022-07-15T17:40:53;19.50;99.90
935;DHT22;454;53.254;10.400;2022-07-15T17:43:19;19.50;99.90
935;DHT22;454;53.254;10.400;2022-07-15T17:45:46;19.50;99.90
935;DHT22;454;53.254;10.400;2022-07-15T17:48:13;19.50;99.90
935;DHT22;454;53.254;10.400;2022-07-15T17:50:39;19.50;99.90
935;DHT22;454;53.254;10.400;2022-07-15T17:53:07;19.50;99.90
935;DHT22;454;53.254;10.400;2022-07-15T17:55:34;19.40;99.90
935;DHT22;454;53.254;10.400;2022-07-15T17:58:01;19.40;99.90
935;DHT22;454;53.254;10.400;2022-07-15T18:00:28;19.40;99.90
935;DHT22;454;53.254;10.400;2022-07-15T18:02:55;19.40;99.90
935;DHT22;454;53.254;10.400;2022-07-15T18:05:21;19.30;99.90
935;DHT22;454;53.254;10.400;2022-07-15T18:07:48;19.30;99.90
935;DHT22;454;53.254;10.400;2022-07-15T18:10:16;19.20;99.90
935;DHT22;454;53.254;10.400;2022-07-15T18:12:43;19.20;99.90
935;DHT22;454;53.254;10.400;2022-07-15T18:15:10;19.20;99.90
935;DHT22;454;53.254;10.400;2022-07-15T18:17:36;19.10;99.90
935;DHT22;454;53.254;10.400;2022-07-15T18:20:04;19.10;99.90
935;DHT22;454;53.254;10.400;2022-07-15T18:22:31;19.00;99.90
935;DHT22;454;53.254;10.400;2022-07-15T18:24:57;19.00;99.90
935;DHT22;454;53.254;10.400;2022-07-15T18:27:26;19.00;99.90
935;DHT22;454;53.254;10.400;2022-07-15T18:29:52;19.00;99.90
935;DHT22;454;53.254;10.400;2022-07-15T18:32:19;18.90;99.90
935;DHT22;454;53.254;10.400;2022-07-15T18:34:46;18.90;99.90
935;DHT22;454;53.254;10.400;2022-07-15T18:37:12;18.80;99.90
935;DHT22;454;53.254;10.400;2022-07-15T18:39:39;18.70;99.90
935;DHT22;454;53.254;10.400;2022-07-15T18:42:06;18.70;99.90
935;DHT22;454;53.254;10.400;2022-07-15T18:44:34;18.60;99.90
935;DHT22;454;53.254;10.400;2022-07-15T18:47:00;18.60;99.90
935;DHT22;454;53.254;10.400;2022-07-15T18:49:27;18.50;99.90
935;DHT22;454;53.254;10.400;2022-07-15T18:51:54;18.50;99.90
935;DHT22;454;53.254;10.400;2022-07-15T18:54:20;18.30;99.90
935;DHT22;454;53.254;10.400;2022-07-15T18:56:47;18.30;99.90
935;DHT22;454;53.254;10.400;2022-07-15T18:59:14;18.30;99.90
935;DHT22;454;53.254;10.400;2022-07-15T19:01:42;18.30;99.90
935;DHT22;454;53.254;10.400;2022-07-15T19:04:09;18.20;99.90
935;DHT22;454;53.254;10.400;2022-07-15T19:06:36;18.20;99.90
935;DHT22;454;53.254;10.400;2022-07-15T19:09:03;18.10;99.90
935;DHT22;454;53.254;10.400;2022-07-15T19:11:30;18.10;99.90
935;DHT22;454;53.254;10.400;2022-07-15T19:13:56;18.10;99.90
935;DHT22;454;53.254;10.400;2022-07-15T19:16:23;18.00;99.90
935;DHT22;454;53.254;10.400;2022-07-15T19:18:51;17.90;99.90
935;DHT22;454;53.254;10.400;2022-07-15T19:21:18;17.90;99.90
935;DHT22;454;53.254;10.400;2022-07-15T19:23:45;17.80;99.90
935;DHT22;454;53.254;10.400;2022-07-15T19:26:11;17.70;99.90
935;DHT22;454;53.254;10.400;2022-07-15T19:28:38;17.70;99.90
935;DHT22;454;53.254;10.400;2022-07-15T19:31:05;17.70;99.90
935;DHT22;454;53.254;10.400;2022-07-15T19:33:32;17.60;99.90
935;DHT22;454;53.254;10.400;2022-07-15T19:36:02;17.60;99.90
935;DHT22;454;53.254;10.400;2022-07-15T19:38:29;17.50;99.90
935;DHT22;454;53.254;10.400;2022-07-15T19:40:56;17.50;99.90
935;DHT22;454;53.254;10.400;2022-07-15T19:43:23;17.50;99.90
935;DHT22;454;53.254;10.400;2022-07-15T19:45:50;17.50;99.90
935;DHT22;454;53.254;10.400;2022-07-15T19:48:16;17.40;99.90
935;DHT22;454;53.254;10.400;2022-07-15T19:50:44;17.40;99.90
935;DHT22;454;53.254;10.400;2022-07-15T19:53:13;17.40;99.90
935;DHT22;454;53.254;10.400;2022-07-15T19:55:40;17.40;99.90
935;DHT22;454;53.254;10.400;2022-07-15T19:58:07;17.30;99.90
935;DHT22;454;53.254;10.400;2022-07-15T20:00:33;17.30;99.90
935;DHT22;454;53.254;10.400;2022-07-15T20:03:02;17.30;99.90
935;DHT22;454;53.254;10.400;2022-07-15T20:05:30;17.30;99.90
935;DHT22;454;53.254;10.400;2022-07-15T20:07:58;17.20;99.90
935;DHT22;454;53.254;10.400;2022-07-15T20:10:27;17.20;99.90
935;DHT22;454;53.254;10.400;2022-07-15T20:12:54;17.20;99.90
935;DHT22;454;53.254;10.400;2022-07-15T20:15:21;17.10;99.90
935;DHT22;454;53.254;10.400;2022-07-15T20:17:49;17.10;99.90
935;DHT22;454;53.254;10.400;2022-07-15T20:20:16;17.10;99.90
935;DHT22;454;53.254;10.400;2022-07-15T20:22:45;17.00;99.90
935;DHT22;454;53.254;10.400;2022-07-15T20:25:12;17.00;99.90
935;DHT22;454;53.254;10.400;2022-07-15T20:27:41;17.00;99.90